Time;durP1;ratioP1;P1;durP2;ratioP2;P2;SDS_P1;SDS_P2;PMS_P1;PMS_P2;Temp;Humidity;BMP_temperature;BMP_pressure;BME280_temperature;BME280_humidity;BME280_pressure;Samples;Min_cycle;Max_cycle;Signal;HPM_P1;HPM_P2
2022/08/24 00:01:28;;;;;;;2.17;1.73;;;25.80;43.20;;;28.08;34.72;101701.91;5075253;28;20221;-61
2022/08/24 00:03:56;;;;;;;2.63;1.90;;;25.80;43.40;;;28.01;34.52;101710.28;5075852;28;20193;-60
2022/08/24 00:06:27;;;;;;;2.70;2.03;;;25.80;43.70;;;28.00;34.48;101705.16;5075646;28;20182;-63
2022/08/24 00:08:57;;;;;;;2.43;2.00;;;25.70;43.60;;;28.01;34.42;101694.03;5075292;28;20287;-61
2022/08/24 00:11:25;;;;;;;3.70;2.07;;;25.70;43.70;;;28.03;34.73;101696.47;5090126;28;20185;-60
2022/08/24 00:13:53;;;;;;;3.27;2.17;;;25.70;43.70;;;28.03;34.94;101701.88;5075294;28;20692;-61
2022/08/24 00:16:21;;;;;;;2.97;2.20;;;25.60;43.80;;;27.97;34.85;101692.94;5075092;28;20546;-61
2022/08/24 00:18:49;;;;;;;3.47;2.10;;;25.60;44.00;;;27.90;34.97;101694.25;5075122;28;20197;-64
2022/08/24 00:21:18;;;;;;;4.27;2.00;;;25.60;44.10;;;27.89;35.14;101696.16;5074637;28;20255;-62
2022/08/24 00:23:48;;;;;;;2.07;1.87;;;25.60;44.10;;;27.88;34.89;101694.53;5074971;28;20200;-62
2022/08/24 00:26:15;;;;;;;2.20;1.70;;;25.50;44.20;;;27.84;35.27;101693.41;5074945;28;20205;-62
2022/08/24 00:28:46;;;;;;;2.63;2.00;;;25.50;44.40;;;27.82;35.06;101695.56;5075553;28;20189;-62
2022/08/24 00:31:14;;;;;;;3.07;2.00;;;25.50;44.40;;;27.77;35.30;101692.84;5074677;28;20268;-63
2022/08/24 00:33:41;;;;;;;3.33;2.00;;;25.40;44.60;;;27.74;35.70;101704.19;5074797;28;20277;-61
2022/08/24 00:36:10;;;;;;;2.57;1.90;;;25.40;44.70;;;27.76;35.41;101698.53;5074360;28;20193;-64
2022/08/24 00:38:38;;;;;;;4.40;2.07;;;25.40;44.60;;;27.74;35.29;101692.59;5074997;28;20189;-63
2022/08/24 00:41:05;;;;;;;2.87;1.87;;;25.40;44.90;;;27.73;35.36;101691.75;5089812;28;20217;-62
2022/08/24 00:43:33;;;;;;;3.00;1.67;;;25.40;44.70;;;27.73;35.54;101693.66;5090923;28;20213;-62
2022/08/24 00:46:13;;;;;;;4.27;2.03;;;25.30;44.90;;;27.69;35.30;101696.09;5057145;28;20259;-62
2022/08/24 00:48:46;;;;;;;3.13;2.20;;;25.30;45.00;;;27.71;35.55;101693.09;5058262;28;20185;-63
2022/08/24 00:51:22;;;;;;;4.60;1.77;;;25.30;45.10;;;27.73;35.76;101691.75;5074643;28;20190;-61
2022/08/24 00:53:57;;;;;;;4.33;2.00;;;25.30;45.10;;;27.74;35.36;101695.28;5035094;28;20174;-61
2022/08/24 00:56:31;;;;;;;5.03;2.10;;;25.30;45.70;;;27.74;35.83;101698.00;5035525;28;20213;-62
2022/08/24 00:59:08;;;;;;;1.93;1.80;;;25.30;45.20;;;27.74;35.18;101703.41;5034693;28;20190;-62
2022/08/24 01:01:36;;;;;;;3.40;2.07;;;25.30;45.00;;;27.78;34.89;101705.31;5034914;28;20222;-62
2022/08/24 01:04:07;;;;;;;3.40;1.90;;;25.30;44.90;;;27.83;35.17;101704.53;5035033;28;20194;-62
2022/08/24 01:06:36;;;;;;;2.93;1.93;;;25.30;45.00;;;27.83;35.37;101697.22;5034399;28;20183;-62
2022/08/24 01:09:04;;;;;;;4.57;2.00;;;25.30;45.20;;;27.82;35.33;101706.41;5034551;28;20199;-62
2022/08/24 01:11:34;;;;;;;3.07;1.73;;;25.30;45.10;;;27.84;35.27;101698.81;5045434;28;20328;-62
2022/08/24 01:14:04;;;;;;;3.93;2.07;;;25.30;45.20;;;27.85;35.31;101710.47;5054322;28;20193;-62
2022/08/24 01:19:42;;;;;;;5.80;1.80;;;25.30;45.90;;;27.81;35.49;101702.09;5051678;28;20629;-63
2022/08/24 01:22:39;;;;;;;3.50;2.13;;;25.30;45.10;;;27.78;35.19;101709.91;5050563;28;20229;-63
2022/08/24 01:25:09;;;;;;;3.60;2.30;;;25.30;45.30;;;27.84;35.50;101698.81;5053260;28;20661;-62
2022/08/24 01:27:38;;;;;;;3.70;1.73;;;25.30;45.30;;;27.82;35.15;101700.16;5054068;28;20268;-62
2022/08/24 01:30:12;;;;;;;3.73;2.03;;;25.30;45.40;;;27.76;35.87;101704.78;5054095;28;20201;-62
2022/08/24 01:32:41;;;;;;;4.57;2.37;;;25.30;45.50;;;27.74;35.61;101698.00;5053405;28;20205;-63
2022/08/24 01:35:09;;;;;;;2.90;1.67;;;25.20;45.60;;;27.68;35.71;101699.84;5053709;28;20190;-63
2022/08/24 01:37:36;;;;;;;3.27;1.90;;;25.20;45.50;;;27.66;35.71;101696.59;5053409;28;20186;-63
2022/08/24 01:40:09;;;;;;;2.20;1.70;;;25.20;45.60;;;27.64;35.78;101704.19;5053566;28;20189;-62
2022/08/24 01:42:37;;;;;;;3.23;2.00;;;25.20;45.60;;;27.60;36.10;101703.06;5053340;28;20213;-62
2022/08/24 01:45:06;;;;;;;2.97;2.20;;;25.20;46.50;;;27.59;36.24;101701.44;5068458;28;20193;-62
2022/08/24 01:47:33;;;;;;;3.33;2.40;;;25.10;45.90;;;27.53;36.15;101702.47;5053412;28;20189;-63
2022/08/24 01:50:01;;;;;;;3.17;1.90;;;25.10;46.20;;;27.49;35.81;101702.22;5053370;28;20216;-62
2022/08/24 01:52:28;;;;;;;5.27;2.10;;;25.10;46.10;;;27.43;36.00;101700.53;5053098;28;20577;-62
2022/08/24 01:55:18;;;;;;;3.90;2.10;;;25.10;46.40;;;27.35;36.24;101697.50;5053671;28;20220;-63
2022/08/24 01:57:49;;;;;;;3.50;2.47;;;25.00;46.60;;;27.27;36.71;101708.78;5068943;28;20194;-62
2022/08/24 02:00:17;;;;;;;1.97;1.73;;;24.90;46.60;;;27.23;36.40;101708.53;5053219;28;20203;-62
2022/08/24 02:02:45;;;;;;;2.50;2.20;;;24.90;46.70;;;27.22;37.26;101706.88;5053422;28;20217;-63
2022/08/24 02:05:15;;;;;;;2.30;1.80;;;24.80;46.80;;;27.20;36.87;101714.44;5053263;28;20202;-62
2022/08/24 02:07:43;;;;;;;3.30;2.07;;;24.80;47.00;;;27.21;37.08;101715.25;5053143;28;20178;-62
2022/08/24 02:10:13;;;;;;;4.10;2.10;;;24.80;47.10;;;27.21;36.80;101710.69;5052972;28;20587;-62
2022/08/24 02:12:56;;;;;;;5.37;2.43;;;24.70;47.00;;;27.13;37.42;101707.63;5053358;28;20213;-62
2022/08/24 02:15:28;;;;;;;2.90;2.03;;;24.70;47.30;;;27.13;36.68;101713.03;5053158;28;20185;-61
2022/08/24 02:17:57;;;;;;;3.27;2.20;;;24.70;47.10;;;27.12;37.06;101716.84;5053098;28;20220;-62
2022/08/24 02:20:25;;;;;;;2.03;1.83;;;24.70;47.50;;;27.10;37.40;101713.56;5053080;28;20674;-62
2022/08/24 02:22:55;;;;;;;4.83;1.63;;;24.60;47.60;;;27.04;37.20;101714.59;5052928;28;20205;-62
2022/08/24 02:25:24;;;;;;;3.83;1.97;;;24.60;47.70;;;27.04;37.60;101714.59;5052550;28;20206;-62
2022/08/24 02:27:52;;;;;;;2.73;1.83;;;24.60;47.70;;;27.00;37.16;101713.50;5052685;28;20312;-61
2022/08/24 02:30:20;;;;;;;2.13;1.93;;;24.60;47.80;;;27.00;37.57;101718.91;5052591;28;20530;-61
2022/08/24 02:32:47;;;;;;;3.23;2.20;;;24.50;47.80;;;27.02;37.10;101714.88;5052677;28;20213;-61
2022/08/24 02:35:16;;;;;;;4.80;2.60;;;24.50;47.90;;;26.98;37.27;101715.66;5056941;28;20220;-62
2022/08/24 02:37:43;;;;;;;2.47;2.03;;;24.50;48.30;;;26.95;37.44;101716.16;5067692;28;20558;-62
2022/08/24 02:40:12;;;;;;;3.73;2.20;;;24.40;48.00;;;26.92;37.62;101716.66;5076761;28;20201;-63
2022/08/24 02:42:40;;;;;;;4.93;2.33;;;24.40;48.80;;;26.85;38.19;101720.44;5076599;28;20205;-64
2022/08/24 02:45:10;;;;;;;3.47;2.10;;;24.40;48.40;;;26.82;37.43;101715.53;5076606;28;20197;-62
2022/08/24 02:47:38;;;;;;;3.03;2.30;;;24.40;48.20;;;26.81;38.18;101711.19;5076480;28;20186;-63
2022/08/24 02:50:11;;;;;;;2.17;1.97;;;24.30;48.40;;;26.81;37.45;101719.28;5062030;28;20202;-63
2022/08/24 02:52:41;;;;;;;2.50;2.20;;;24.30;48.40;;;26.84;37.64;101723.38;5071755;28;20209;-62
2022/08/24 02:55:13;;;;;;;3.83;2.20;;;24.30;48.30;;;26.84;37.96;101726.88;5056455;28;20200;-63
2022/08/24 02:57:41;;;;;;;2.60;2.40;;;24.30;48.70;;;26.83;37.48;101719.88;5056467;28;20204;-62
2022/08/24 03:00:15;;;;;;;3.13;2.10;;;24.30;48.50;;;26.77;37.53;101718.19;5056573;28;20544;-63
2022/08/24 03:02:44;;;;;;;4.23;2.17;;;24.30;48.70;;;26.74;37.91;101721.34;5056018;28;20275;-62
2022/08/24 03:05:13;;;;;;;3.07;2.23;;;24.30;48.70;;;26.73;37.78;101718.94;5056256;28;20239;-61
2022/08/24 03:07:41;;;;;;;3.13;2.13;;;24.20;48.80;;;26.68;38.60;101716.19;5056316;28;20205;-62
2022/08/24 03:10:09;;;;;;;2.57;2.27;;;24.20;49.00;;;26.63;38.01;101719.66;5056343;28;20190;-62
2022/08/24 03:12:37;;;;;;;6.80;2.23;;;24.20;49.10;;;26.53;38.61;101719.56;5055940;28;20210;-62
2022/08/24 03:15:09;;;;;;;2.33;2.10;;;24.20;49.40;;;26.43;38.99;101716.78;5056550;28;20200;-63
2022/08/24 03:17:40;;;;;;;3.70;2.27;;;24.10;49.40;;;26.37;38.65;101720.47;5056309;28;20626;-62
2022/08/24 03:20:14;;;;;;;2.50;2.13;;;24.00;49.40;;;26.31;38.81;101716.13;5056068;28;20170;-60
2022/08/24 03:22:43;;;;;;;4.30;2.40;;;24.00;49.70;;;26.30;39.20;101719.88;5055718;28;20268;-61
2022/08/24 03:25:12;;;;;;;6.97;2.90;;;23.90;49.60;;;26.30;39.41;101717.16;5055255;28;20205;-61
2022/08/24 03:27:40;;;;;;;3.70;2.30;;;23.90;50.40;;;26.34;38.71;101720.97;5055600;28;20208;-61
2022/08/24 03:30:11;;;;;;;2.97;2.43;;;23.90;49.70;;;26.39;38.98;101712.13;5055675;28;20186;-63
2022/08/24 03:32:41;;;;;;;3.33;2.73;;;23.90;49.80;;;26.44;38.71;101713.00;5055340;28;20288;-61
2022/08/24 03:35:12;;;;;;;3.23;2.13;;;23.90;49.80;;;26.48;38.94;101714.09;5070855;28;20187;-61
2022/08/24 03:37:40;;;;;;;3.30;2.63;;;23.90;49.90;;;26.47;39.33;101720.59;5055912;28;20183;-61
2022/08/24 03:40:11;;;;;;;5.40;2.40;;;23.90;50.10;;;26.45;38.66;101722.75;5055567;28;20564;-62
2022/08/24 03:42:51;;;;;;;3.23;2.33;;;23.90;50.00;;;26.43;39.21;101724.88;5055817;28;20224;-61
2022/08/24 03:45:19;;;;;;;3.87;2.40;;;23.90;50.00;;;26.43;39.08;101722.19;5054086;28;20541;-61
2022/08/24 03:47:49;;;;;;;5.63;3.17;;;23.90;50.00;;;26.46;38.97;101718.16;5056286;28;20197;-61
2022/08/24 03:50:18;;;;;;;4.27;2.20;;;23.90;50.00;;;26.47;38.53;101720.59;5071461;28;20225;-61
2022/08/24 03:52:45;;;;;;;4.70;2.17;;;23.90;50.10;;;26.51;38.51;101726.28;5075157;28;20623;-61
2022/08/24 03:55:13;;;;;;;2.40;2.20;;;23.90;50.10;;;26.56;38.44;101726.34;5075051;28;20300;-61
2022/08/24 03:57:40;;;;;;;2.50;2.30;;;23.90;50.10;;;26.59;39.00;101725.81;5075194;28;20224;-61
2022/08/24 04:00:11;;;;;;;3.00;2.43;;;23.90;50.00;;;26.58;38.51;101727.72;5064917;28;20202;-61
2022/08/24 04:02:38;;;;;;;4.97;2.50;;;23.90;50.10;;;26.59;38.30;101721.25;5054650;28;20249;-62
2022/08/24 04:05:09;;;;;;;6.47;2.47;;;23.90;50.00;;;26.59;38.44;101723.94;5055054;28;20280;-62
2022/08/24 04:07:37;;;;;;;4.30;2.60;;;24.00;50.10;;;26.56;38.41;101723.63;5055206;28;20269;-61
2022/08/24 04:10:05;;;;;;;3.83;2.43;;;24.00;50.10;;;26.58;38.94;101726.88;5054855;28;20197;-61
2022/08/24 04:12:33;;;;;;;2.60;2.13;;;24.00;50.10;;;26.58;38.41;101722.31;5054747;28;20300;-62
2022/08/24 04:15:01;;;;;;;3.50;2.60;;;24.00;50.10;;;26.58;38.51;101727.72;5054883;28;20190;-62
2022/08/24 04:17:29;;;;;;;2.30;2.10;;;24.00;50.30;;;26.55;39.16;101722.03;5054815;28;20270;-63
2022/08/24 04:19:57;;;;;;;2.50;2.30;;;24.00;50.20;;;26.50;39.21;101719.28;5054482;28;20247;-61
2022/08/24 04:22:29;;;;;;;3.53;2.20;;;23.90;50.10;;;26.47;39.31;101712.50;5054219;28;20218;-61
2022/08/24 04:24:56;;;;;;;2.53;2.10;;;23.90;50.30;;;26.43;39.32;101719.47;5054627;28;20194;-63
2022/08/24 04:27:24;;;;;;;3.73;2.80;;;23.90;50.30;;;26.42;39.30;101717.84;5054590;28;20186;-63
2022/08/24 04:29:52;;;;;;;4.43;2.50;;;23.90;50.50;;;26.38;39.58;101705.09;5054416;28;20635;-62
2022/08/24 04:32:19;;;;;;;4.40;2.60;;;23.90;50.60;;;26.36;39.48;101701.84;5054221;28;20202;-62
2022/08/24 04:34:46;;;;;;;3.40;2.63;;;23.80;50.40;;;26.34;39.34;101704.78;5054538;28;20192;-61
2022/08/24 04:37:15;;;;;;;3.93;3.60;;;23.80;50.60;;;26.33;39.57;101708.56;5054228;28;20315;-62
2022/08/24 04:39:44;;;;;;;4.13;2.63;;;23.80;50.60;;;26.32;39.03;101706.94;5053936;28;20224;-62
2022/08/24 04:42:12;;;;;;;6.93;2.77;;;23.80;50.80;;;26.32;39.37;101712.31;5052811;28;20297;-62
2022/08/24 04:44:39;;;;;;;4.63;2.60;;;23.80;50.60;;;26.30;39.72;101714.47;5053688;28;20186;-63
2022/08/24 04:47:07;;;;;;;4.03;2.60;;;23.80;50.80;;;26.25;39.93;101717.13;5054113;28;20210;-62
2022/08/24 04:49:35;;;;;;;5.83;2.40;;;23.70;51.10;;;26.23;39.84;101724.66;5064586;28;20561;-63
2022/08/24 04:52:03;;;;;;;3.83;3.10;;;23.70;51.00;;;26.18;39.38;101728.13;5073601;28;20213;-63
2022/08/24 04:54:31;;;;;;;3.13;2.53;;;23.70;51.20;;;26.15;39.83;101728.63;5073676;28;20185;-63
2022/08/24 04:57:00;;;;;;;4.03;2.93;;;23.60;51.10;;;26.15;39.60;101730.50;5058909;28;20206;-62
2022/08/24 04:59:27;;;;;;;6.30;3.00;;;23.60;51.30;;;26.14;40.22;101728.88;5053582;28;20182;-63
2022/08/24 05:01:54;;;;;;;3.93;2.80;;;23.60;51.50;;;26.13;39.73;101727.25;5053478;28;20222;-63
2022/08/24 05:04:23;;;;;;;3.83;2.87;;;23.60;51.50;;;26.11;40.32;101734.78;5053636;28;20268;-63
2022/08/24 05:06:50;;;;;;;3.07;2.77;;;23.60;51.60;;;26.10;39.73;101741.22;5053522;28;20185;-62
2022/08/24 05:09:19;;;;;;;3.57;2.90;;;23.60;51.70;;;26.05;39.93;101736.56;5053773;28;20197;-63
2022/08/24 05:11:46;;;;;;;3.97;2.50;;;23.50;51.80;;;26.04;39.80;101734.13;5053367;28;20562;-63
2022/08/24 05:14:17;;;;;;;3.87;2.63;;;23.50;51.80;;;26.02;40.13;101731.69;5053198;28;20265;-63
2022/08/24 05:16:45;;;;;;;4.70;2.50;;;23.50;51.80;;;26.04;40.58;101739.53;5053563;28;20205;-62
2022/08/24 05:19:23;;;;;;;5.23;2.77;;;23.50;51.80;;;26.01;40.14;101742.72;5053294;28;20178;-63
2022/08/24 05:21:51;;;;;;;6.47;3.00;;;23.50;52.00;;;26.02;40.64;101744.38;5053008;28;20578;-62
2022/08/24 05:24:19;;;;;;;5.10;3.00;;;23.50;52.00;;;26.03;40.17;101748.72;5053146;28;20669;-62
2022/08/24 05:26:46;;;;;;;5.67;2.50;;;23.50;52.20;;;26.07;39.95;101747.13;5053287;28;20208;-62
2022/08/24 05:29:17;;;;;;;5.50;2.93;;;23.50;52.00;;;26.10;40.69;101752.03;5052893;28;20359;-63
2022/08/24 05:31:45;;;;;;;5.53;3.60;;;23.50;52.30;;;26.14;40.21;101753.19;5067951;28;20292;-62
2022/08/24 05:34:13;;;;;;;6.67;3.10;;;23.60;52.30;;;26.21;40.72;101759.19;5053233;28;20193;-61
2022/08/24 05:36:41;;;;;;;4.23;2.83;;;23.60;52.40;;;26.27;39.94;101762.78;5053243;28;20197;-63
2022/08/24 05:39:13;;;;;;;4.53;3.00;;;23.60;52.30;;;26.29;40.61;101761.47;5053234;28;20189;-62
2022/08/24 05:41:44;;;;;;;5.33;2.93;;;23.60;52.20;;;26.27;40.12;101763.56;5052833;28;20304;-63
2022/08/24 05:44:14;;;;;;;5.10;2.90;;;23.70;52.30;;;26.27;40.45;101763.56;5052466;28;20197;-61
2022/08/24 05:46:44;;;;;;;7.17;3.20;;;23.70;52.30;;;26.32;40.23;101760.94;5052588;28;20178;-62
2022/08/24 05:49:11;;;;;;;5.37;3.03;;;23.70;52.30;;;26.36;40.06;101767.47;5052938;28;20193;-63
2022/08/24 05:51:41;;;;;;;7.83;3.33;;;23.70;52.30;;;26.33;40.00;101773.38;5052630;28;20210;-62
2022/08/24 05:54:09;;;;;;;6.23;3.23;;;23.80;52.40;;;26.32;40.81;101777.13;5068382;28;20257;-63
2022/08/24 05:56:36;;;;;;;5.87;3.17;;;23.80;52.40;;;26.34;40.20;101780.41;5052872;28;20204;-64
2022/08/24 05:59:04;;;;;;;7.33;4.10;;;23.80;52.30;;;26.41;40.06;101778.31;5052897;28;20661;-63
2022/08/24 06:01:32;;;;;;;6.60;3.53;;;23.80;52.40;;;26.46;40.11;101778.38;5051503;28;20221;-63
2022/08/24 06:04:01;;;;;;;4.77;3.17;;;23.90;52.40;;;26.52;39.83;101780.06;5052889;28;20248;-64
2022/08/24 06:06:30;;;;;;;6.63;3.33;;;23.90;52.50;;;26.55;40.42;101774.16;5052766;28;20190;-63
2022/08/24 06:09:00;;;;;;;7.03;2.80;;;23.90;52.30;;;26.60;39.84;101770.69;5052164;28;20201;-62
2022/08/24 06:11:31;;;;;;;3.67;2.80;;;24.00;52.40;;;26.60;40.40;101768.78;5052402;28;20739;-62
2022/08/24 06:14:03;;;;;;;6.73;3.13;;;24.00;52.30;;;26.56;39.79;101774.97;5051864;28;20174;-62
2022/08/24 06:16:35;;;;;;;7.07;3.00;;;24.00;52.20;;;26.51;40.58;101769.50;5052653;28;20211;-63
2022/08/24 06:19:06;;;;;;;10.60;3.70;;;24.00;52.20;;;26.50;40.06;101779.50;5052663;28;20186;-62
2022/08/24 06:21:33;;;;;;;4.77;2.80;;;24.00;52.40;;;26.49;40.12;101783.28;5052230;28;20206;-63
2022/08/24 06:24:01;;;;;;;6.63;3.70;;;24.00;52.40;;;26.46;40.58;101777.56;5052682;28;20186;-62
2022/08/24 06:29:17;;;;;;;6.63;4.80;;;23.90;52.50;;;26.55;40.40;101778.75;5052608;28;20178;-62
2022/08/24 06:31:47;;;;;;;6.77;3.30;;;24.00;52.70;;;26.61;40.12;101783.13;5053444;28;20221;-64
2022/08/24 06:34:24;;;;;;;5.13;3.43;;;24.00;52.70;;;26.62;39.98;101788.28;5052807;28;20186;-63
2022/08/24 06:36:52;;;;;;;7.90;3.03;;;24.00;52.60;;;26.64;40.68;101788.84;5051718;28;20248;-63
2022/08/24 06:39:20;;;;;;;5.03;3.03;;;24.10;52.60;;;26.68;40.59;101784.56;5068056;28;20589;-62
2022/08/24 06:41:47;;;;;;;11.13;8.83;;;24.10;52.50;;;26.78;40.27;101781.97;5052334;28;20217;-63
2022/08/24 06:44:14;;;;;;;4.00;3.53;;;24.10;52.40;;;26.85;39.78;101788.00;5052665;28;20269;-62
2022/08/24 06:46:42;;;;;;;7.07;2.90;;;24.10;52.40;;;26.96;40.18;101793.50;5052672;28;20185;-62
2022/08/24 06:49:09;;;;;;;7.57;3.10;;;24.20;52.30;;;27.08;39.48;101797.63;5059845;28;20264;-63
2022/08/24 06:51:39;;;;;;;5.50;3.30;;;24.30;52.40;;;27.25;39.76;101797.50;5070137;28;20312;-63
2022/08/24 06:54:06;;;;;;;5.80;2.93;;;24.40;52.40;;;27.39;39.38;101809.53;5053139;28;20182;-63
2022/08/24 06:56:36;;;;;;;5.40;3.70;;;24.50;52.80;;;27.57;39.47;101806.44;5052484;28;20198;-62
2022/08/24 06:59:05;;;;;;;5.97;2.97;;;24.60;52.10;;;27.68;38.75;101808.09;5053208;28;20179;-63
2022/08/24 07:01:32;;;;;;;5.37;3.10;;;24.70;51.60;;;27.75;38.34;101814.09;5052621;28;20210;-63
2022/08/24 07:04:00;;;;;;;4.17;3.27;;;24.90;51.50;;;27.75;38.65;101808.69;5052683;28;20216;-62
2022/08/24 07:06:28;;;;;;;3.87;3.13;;;25.00;51.10;;;27.78;38.34;101807.34;5052755;28;20190;-63
2022/08/24 07:08:57;;;;;;;6.90;4.93;;;25.00;51.10;;;27.80;38.30;101816.84;5052969;28;20194;-61
2022/08/24 07:11:24;;;;;;;7.10;3.30;;;25.10;50.90;;;27.77;38.63;101817.34;5054952;28;20196;-63
2022/08/24 07:13:51;;;;;;;5.03;3.20;;;25.10;50.90;;;27.74;38.38;101815.16;5052688;28;20186;-63
2022/08/24 07:16:20;;;;;;;6.67;2.90;;;25.10;50.80;;;27.76;38.62;101823.88;5052902;28;20205;-63
2022/08/24 07:18:48;;;;;;;2.67;2.47;;;25.20;50.70;;;27.82;38.56;101835.50;5067953;28;20247;-62
2022/08/24 07:21:18;;;;;;;4.73;2.57;;;25.20;50.60;;;27.85;38.91;101830.41;5054462;28;20256;-62
2022/08/24 07:23:47;;;;;;;2.97;2.73;;;25.20;50.70;;;27.89;38.29;101826.09;5056161;28;20236;-62
2022/08/24 07:26:21;;;;;;;4.73;2.80;;;25.30;50.50;;;27.99;38.16;101826.19;5055015;28;20220;-63
2022/08/24 07:28:50;;;;;;;3.97;2.60;;;25.40;50.70;;;28.22;38.16;101826.81;5056010;28;20320;-63
2022/08/24 07:31:19;;;;;;;3.40;2.60;;;25.40;50.60;;;28.64;37.44;101827.53;5056166;28;20609;-62
2022/08/24 07:33:47;;;;;;;7.67;3.03;;;25.60;50.20;;;29.09;36.70;101824.88;5056251;28;20186;-62
2022/08/24 07:36:16;;;;;;;2.50;2.30;;;25.80;49.70;;;29.65;35.77;101824.81;5056102;28;20260;-64
2022/08/24 07:38:52;;;;;;;5.23;3.13;;;26.20;49.40;;;30.29;34.71;101827.63;5055845;28;20651;-62
2022/08/24 07:41:24;;;;;;;3.33;2.67;;;26.70;48.50;;;30.75;33.57;101821.69;5055834;28;20185;-62
2022/08/24 07:44:13;;;;;;;5.23;2.77;;;27.10;46.90;;;31.28;33.16;101827.28;5055379;28;20218;-63
2022/08/24 07:46:41;;;;;;;9.23;3.10;;;27.60;45.90;;;32.00;31.81;101827.09;5055141;28;20200;-65
2022/08/24 07:49:11;;;;;;;3.57;2.70;;;28.10;45.20;;;32.84;30.71;101830.88;5053970;28;20200;-64
2022/08/24 07:51:58;;;;;;;4.70;2.83;;;28.60;44.50;;;33.76;29.77;101831.78;5054666;28;20228;-62
2022/08/24 07:54:27;;;;;;;7.40;2.47;;;29.30;43.10;;;34.60;29.15;101821.28;5054982;28;20274;-63
2022/08/24 07:57:01;;;;;;;3.93;2.90;;;29.90;42.50;;;35.44;27.75;101838.66;5055072;28;20263;-62
2022/08/24 07:59:28;;;;;;;4.37;2.80;;;30.60;40.40;;;36.05;26.72;101839.75;5055477;28;20372;-62
2022/08/24 08:01:57;;;;;;;4.87;2.73;;;31.20;38.70;;;36.59;25.24;101834.53;5055562;28;20213;-63
2022/08/24 08:04:25;;;;;;;3.87;3.10;;;31.80;36.60;;;36.97;24.80;101842.94;5055764;28;20605;-63
2022/08/24 08:06:53;;;;;;;2.97;2.65;;;32.30;35.60;;;37.14;24.37;101848.41;5055234;28;20237;-63
2022/08/24 08:09:26;;;;;;;4.43;2.95;;;32.60;34.50;;;37.35;23.61;101854.00;5055452;28;20209;-62
2022/08/24 08:11:54;;;;;;;2.88;2.42;;;32.90;33.40;;;37.49;23.40;101853.84;5055886;28;20217;-62
2022/08/24 08:14:25;;;;;;;2.58;2.38;;;33.10;32.90;;;37.80;23.50;101854.38;5056173;28;20190;-63
2022/08/24 08:16:53;;;;;;;5.00;2.60;;;33.40;32.60;;;38.29;22.82;101845.41;5056047;28;20665;-64
2022/08/24 08:19:21;;;;;;;4.13;2.42;;;33.60;32.30;;;38.72;22.60;101847.03;5058357;28;20194;-64
2022/08/24 08:24:39;;;;;;;3.20;2.10;;;34.30;31.20;;;39.24;21.27;101859.19;5054849;28;20209;-62
2022/08/24 08:27:10;;;;;;;3.65;2.75;;;34.50;30.30;;;39.46;21.66;101850.50;5068764;28;20197;-63
2022/08/24 08:29:40;;;;;;;3.47;2.40;;;34.70;30.10;;;39.97;21.25;101853.75;5062853;28;20275;-63
2022/08/24 08:32:08;;;;;;;2.97;2.30;;;35.00;30.10;;;40.30;20.19;101851.69;5086577;28;20213;-64
2022/08/24 08:34:35;;;;;;;4.65;2.60;;;35.30;29.30;;;40.46;20.64;101853.38;5053997;28;20193;-63
2022/08/24 08:37:03;;;;;;;4.50;2.40;;;35.50;29.00;;;40.40;20.29;101851.19;5057856;28;20193;-63
2022/08/24 08:39:31;;;;;;;4.90;2.33;;;35.60;28.50;;;40.27;20.20;101846.88;5065315;28;20204;-63
2022/08/24 08:42:42;;;;;;;2.47;2.28;;;35.70;28.30;;;40.34;20.03;101852.59;5053527;28;20221;-64
2022/08/24 08:45:28;;;;;;;2.78;2.10;;;35.90;28.70;;;40.83;20.04;101864.31;5064171;28;20217;-62
2022/08/24 08:48:52;;;;;;;3.00;2.30;;;36.10;28.60;;;41.22;18.74;101854.38;5057627;28;20638;-61
2022/08/24 08:52:03;;;;;;;3.85;2.80;;;36.40;27.70;;;41.73;19.38;101856.13;5068157;28;20194;-63
2022/08/24 08:54:53;;;;;;;3.05;2.85;;;36.70;27.90;;;42.24;18.65;101846.69;5053493;28;20194;-63
2022/08/24 08:57:52;;;;;;;4.00;2.83;;;37.00;27.20;;;42.29;18.33;101840.84;5048606;28;20202;-63
2022/08/24 09:00:27;;;;;;;2.53;2.33;;;37.20;26.70;;;42.51;18.51;101844.13;5053875;28;20239;-62
2022/08/24 09:03:31;;;;;;;2.78;2.53;;;37.40;26.80;;;42.86;17.41;101850.38;5072356;28;20213;-62
2022/08/24 09:06:41;;;;;;;5.50;2.90;;;37.60;25.90;;;42.78;17.56;101843.88;5065774;28;20185;-64
2022/08/24 09:09:44;;;;;;;3.72;2.58;;;37.70;25.80;;;42.82;17.27;101833.66;5050923;28;20216;-62
2022/08/24 09:12:30;;;;;;;4.28;2.80;;;37.80;25.60;;;42.87;17.30;101830.56;5069687;28;20266;-63
2022/08/24 09:15:36;;;;;;;2.80;2.60;;;37.90;25.40;;;43.30;17.15;101828.63;5072307;28;20201;-64
2022/08/24 09:18:29;;;;;;;4.38;2.92;;;38.10;25.70;;;43.99;16.73;101836.50;5058507;28;20205;-63
2022/08/24 09:21:27;;;;;;;3.90;2.75;;;38.40;25.30;;;44.09;16.37;101835.09;5055018;28;20189;-65
2022/08/24 09:24:10;;;;;;;3.03;2.83;;;38.60;24.70;;;44.01;16.45;101836.91;5072556;28;20208;-63
2022/08/24 09:26:53;;;;;;;3.67;2.53;;;38.80;24.70;;;43.64;16.11;101831.19;5052429;28;20204;-63
2022/08/24 09:29:46;;;;;;;3.35;2.78;;;38.70;24.00;;;43.53;16.54;101841.31;5053062;28;20178;-62
2022/08/24 09:32:51;;;;;;;3.95;2.28;;;38.70;24.30;;;43.47;16.57;101834.50;5059337;28;20709;-62
2022/08/24 09:35:33;;;;;;;6.85;2.92;;;38.60;24.30;;;43.28;16.52;101828.16;5072679;28;20207;-63
2022/08/24 09:38:16;;;;;;;3.95;3.10;;;38.50;24.20;;;43.26;16.62;101836.06;5060508;28;20194;-63
2022/08/24 09:41:16;;;;;;;3.97;2.83;;;38.50;24.40;;;43.36;16.64;101821.63;5053368;28;20213;-62
2022/08/24 09:44:28;;;;;;;3.65;2.75;;;38.50;24.60;;;43.53;16.50;101835.75;5064694;28;20213;-63
2022/08/24 09:47:56;;;;;;;3.22;2.70;;;38.50;24.40;;;43.96;16.27;101834.47;5036321;28;20205;-63
2022/08/24 09:51:22;;;;;;;4.75;2.65;;;38.70;24.40;;;44.06;16.22;101828.28;4993394;28;20627;-62
2022/08/24 09:54:41;;;;;;;3.85;2.47;;;38.80;24.10;;;44.43;15.89;101834.72;5052187;28;20277;-64
2022/08/24 09:57:37;;;;;;;4.03;3.13;;;39.10;23.80;;;44.76;15.53;101828.41;5040880;28;20609;-64
2022/08/24 10:00:33;;;;;;;2.80;2.55;;;39.30;23.90;;;45.27;15.16;101833.31;5059074;28;20201;-63
2022/08/24 10:03:21;;;;;;;2.65;2.40;;;39.60;23.90;;;45.50;15.53;101831.16;5068790;28;20208;-63
2022/08/24 10:06:19;;;;;;;4.38;3.53;;;39.80;23.60;;;45.60;14.46;101830.44;5062104;28;20214;-63
2022/08/24 10:09:35;;;;;;;4.82;3.08;;;40.00;23.30;;;45.68;15.21;101832.09;5055316;28;20198;-63
2022/08/24 10:12:21;;;;;;;4.13;2.85;;;40.20;23.10;;;46.06;15.25;101826.00;5059316;28;20221;-64
2022/08/24 10:15:00;;;;;;;3.92;3.53;;;40.40;23.20;;;46.56;14.36;101832.59;5053832;28;20193;-63
2022/08/24 10:17:46;;;;;;;6.30;2.60;;;40.60;22.90;;;46.47;13.38;101834.16;5064704;28;20197;-63
2022/08/24 10:20:23;;;;;;;4.53;2.92;;;40.70;22.30;;;46.18;14.14;101824.84;5053112;28;20216;-62
2022/08/24 10:23:29;;;;;;;3.13;2.13;;;40.70;21.90;;;45.94;14.41;101817.94;5069898;28;20213;-63
2022/08/24 10:26:10;;;;;;;3.17;2.58;;;40.60;21.80;;;45.84;14.02;101824.22;5054592;28;20189;-63
2022/08/24 10:29:16;;;;;;;2.80;2.60;;;40.60;21.80;;;46.10;13.59;101818.44;5071734;28;20208;-63
2022/08/24 10:32:07;;;;;;;2.60;2.40;;;40.60;22.00;;;45.95;14.09;101813.97;5060999;28;20232;-63
2022/08/24 10:34:56;;;;;;;3.95;2.83;;;40.50;21.60;;;45.17;14.16;101820.88;5054892;28;20185;-63
2022/08/24 10:42:01;;;;;;;3.85;2.70;;;40.20;22.40;;;43.06;16.28;101819.47;5038531;28;20606;-62
2022/08/24 10:44:45;;;;;;;3.00;2.75;;;40.00;22.40;;;42.01;17.67;101808.94;5062494;28;20649;-63
2022/08/24 10:47:21;;;;;;;4.30;2.42;;;39.50;22.80;;;41.22;18.65;101810.13;5064304;28;20228;-64
2022/08/24 10:50:25;;;;;;;7.43;3.30;;;39.00;23.20;;;40.30;19.17;101813.81;5053906;28;20213;-63
2022/08/24 10:53:24;;;;;;;3.03;2.75;;;38.50;23.80;;;39.75;19.37;101814.47;5068668;28;20232;-63
2022/08/24 10:56:13;;;;;;;4.68;2.70;;;38.00;24.40;;;39.32;19.52;101814.19;5063619;28;20185;-66